Airfield :
LOGIN :

Register | Disclaimer

   EN    FR    IT 

 










Legend :    VFR   Marginal VFR   IFR   Intensive IFR   Very Intensive IFR
Visi :
Ceiling :
>= 8 km
>= 3000ft
5 to 8 km
1000 to 3000 ft
1500m to 5 km
500 to 1000 ft
800 to 1500m
200 to 500 ft
< 800m
< 200 ft
Symbols :   Thunderstorms  Fog  Heavy snow  Heavy precipitations  Wind > 20 kt
SIGMETs :     Misc.  Thunderstorms  Icing  Turbulence  Mountain Waves  Volcanic Ashes






- Airport Elevation : 1306 ft
- IATA code : ACH


LSZR - Alten Rhein

CURRENT METAR :
  • 301320Z AUTO 36005KT 320V040 9999 OVC014 04/03 Q1020

EXPIRED METARs :
  • 301250Z 02003KT 300V120 9999 BKN015 05/03 Q1019 RMK H
  • 301220Z 02003KT 300V120 9999 BKN015 05/03 Q1019 RMK H
  • 301150Z 02007KT 350V060 9999 FEW012 BKN020 05/03 Q1019 RMK G
  • 301120Z 02007KT 350V060 9999 FEW012 BKN020 05/03 Q1019 RMK G
  • 301050Z 02007KT 340V040 9999 BKN019 06/04 Q1019 RMK F

TAF TAF LSZR
Valid from the 30 at 12:00 until the 30 at 21:00 UTC


301125Z 3012/3021 04007KT 9999 BKN020
PROB30 3018/3021 BKN012
ATIS : +41 71 858 51 66



MET'MAP, your aeronautical weather chart ! - Copyright ORBIFLY December 2007 - Disclaimer

ORBIFLY MET'MAP TEAM :

Programming & Development : Alexandra Zaïnal
Original concept : Baudouin d'Aumeries
Technical & hardware support : Manuel Goepfert
Assistance : Marc-Olivier Méhu




SOURCES & CREDITS :

   NOAA